sensor_id;sensor_type;location;lat;lon;timestamp;temperature;humidity
24618;DHT22;12762;51.730;5.356;2023-02-15T00:00:10;4.00;73.90
24618;DHT22;12762;51.730;5.356;2023-02-15T00:02:38;4.00;74.00
24618;DHT22;12762;51.730;5.356;2023-02-15T00:05:05;4.00;74.10
24618;DHT22;12762;51.730;5.356;2023-02-15T00:07:33;3.90;74.00
24618;DHT22;12762;51.730;5.356;2023-02-15T00:10:00;3.90;74.10
24618;DHT22;12762;51.730;5.356;2023-02-15T00:12:27;3.90;74.10
24618;DHT22;12762;51.730;5.356;2023-02-15T00:14:53;3.90;74.20
24618;DHT22;12762;51.730;5.356;2023-02-15T00:17:24;3.80;74.10
24618;DHT22;12762;51.730;5.356;2023-02-15T00:19:50;3.80;74.20
24618;DHT22;12762;51.730;5.356;2023-02-15T00:22:17;3.80;75.10
24618;DHT22;12762;51.730;5.356;2023-02-15T00:24:44;3.80;74.30
24618;DHT22;12762;51.730;5.356;2023-02-15T00:27:11;3.80;74.30
24618;DHT22;12762;51.730;5.356;2023-02-15T00:29:38;3.80;74.40
24618;DHT22;12762;51.730;5.356;2023-02-15T00:32:07;3.70;74.40
24618;DHT22;12762;51.730;5.356;2023-02-15T00:34:34;3.70;74.40
24618;DHT22;12762;51.730;5.356;2023-02-15T00:37:01;3.70;74.40
24618;DHT22;12762;51.730;5.356;2023-02-15T00:39:28;3.70;74.50
24618;DHT22;12762;51.730;5.356;2023-02-15T00:41:55;3.70;74.60
24618;DHT22;12762;51.730;5.356;2023-02-15T00:44:22;3.70;75.40
24618;DHT22;12762;51.730;5.356;2023-02-15T00:46:49;3.60;74.50
24618;DHT22;12762;51.730;5.356;2023-02-15T00:49:15;3.60;74.60
24618;DHT22;12762;51.730;5.356;2023-02-15T00:51:42;3.60;74.60
24618;DHT22;12762;51.730;5.356;2023-02-15T00:54:12;3.50;74.50
24618;DHT22;12762;51.730;5.356;2023-02-15T00:56:39;3.50;74.60
24618;DHT22;12762;51.730;5.356;2023-02-15T00:59:06;3.50;74.60
24618;DHT22;12762;51.730;5.356;2023-02-15T01:01:33;3.40;74.60
24618;DHT22;12762;51.730;5.356;2023-02-15T01:03:59;3.40;74.70
24618;DHT22;12762;51.730;5.356;2023-02-15T01:06:26;3.40;74.70
24618;DHT22;12762;51.730;5.356;2023-02-15T01:08:53;3.40;74.70
24618;DHT22;12762;51.730;5.356;2023-02-15T01:11:21;3.40;74.80
24618;DHT22;12762;51.730;5.356;2023-02-15T01:13:54;3.40;74.80
24618;DHT22;12762;51.730;5.356;2023-02-15T01:16:24;3.40;75.00
24618;DHT22;12762;51.730;5.356;2023-02-15T01:18:52;3.40;75.00
24618;DHT22;12762;51.730;5.356;2023-02-15T01:21:23;3.40;75.00
24618;DHT22;12762;51.730;5.356;2023-02-15T01:23:50;3.40;75.00
24618;DHT22;12762;51.730;5.356;2023-02-15T01:26:16;3.40;75.00
24618;DHT22;12762;51.730;5.356;2023-02-15T01:28:44;3.40;75.00
24618;DHT22;12762;51.730;5.356;2023-02-15T01:31:14;3.40;75.10
24618;DHT22;12762;51.730;5.356;2023-02-15T01:33:42;3.40;76.10
24618;DHT22;12762;51.730;5.356;2023-02-15T01:36:09;3.40;75.30
24618;DHT22;12762;51.730;5.356;2023-02-15T01:38:36;3.40;75.30
24618;DHT22;12762;51.730;5.356;2023-02-15T01:41:03;3.40;75.20
24618;DHT22;12762;51.730;5.356;2023-02-15T01:43:58;3.40;75.30
24618;DHT22;12762;51.730;5.356;2023-02-15T01:46:37;3.30;75.20
24618;DHT22;12762;51.730;5.356;2023-02-15T01:49:16;3.30;75.20
24618;DHT22;12762;51.730;5.356;2023-02-15T01:51:45;3.30;76.00
24618;DHT22;12762;51.730;5.356;2023-02-15T01:54:37;3.20;75.20
24618;DHT22;12762;51.730;5.356;2023-02-15T01:57:09;3.20;75.20
24618;DHT22;12762;51.730;5.356;2023-02-15T01:59:39;3.20;75.20
24618;DHT22;12762;51.730;5.356;2023-02-15T02:02:08;3.10;75.10
24618;DHT22;12762;51.730;5.356;2023-02-15T02:04:43;3.10;75.20
24618;DHT22;12762;51.730;5.356;2023-02-15T02:07:12;3.10;75.30
24618;DHT22;12762;51.730;5.356;2023-02-15T02:09:44;3.00;75.30
24618;DHT22;12762;51.730;5.356;2023-02-15T02:12:11;3.00;75.20
24618;DHT22;12762;51.730;5.356;2023-02-15T02:14:39;3.00;75.20
24618;DHT22;12762;51.730;5.356;2023-02-15T02:17:21;2.90;75.30
24618;DHT22;12762;51.730;5.356;2023-02-15T02:23:02;2.80;75.20
24618;DHT22;12762;51.730;5.356;2023-02-15T02:33:39;2.60;75.10
24618;DHT22;12762;51.730;5.356;2023-02-15T02:36:38;2.60;75.30
24618;DHT22;12762;51.730;5.356;2023-02-15T02:39:12;2.50;75.10
24618;DHT22;12762;51.730;5.356;2023-02-15T02:42:04;2.50;75.20
24618;DHT22;12762;51.730;5.356;2023-02-15T02:44:44;2.50;75.30
24618;DHT22;12762;51.730;5.356;2023-02-15T02:48:03;2.40;75.10
24618;DHT22;12762;51.730;5.356;2023-02-15T02:50:07;2.40;75.20
24618;DHT22;12762;51.730;5.356;2023-02-15T02:52:47;2.40;75.20
24618;DHT22;12762;51.730;5.356;2023-02-15T02:55:32;2.40;75.20
24618;DHT22;12762;51.730;5.356;2023-02-15T03:03:35;2.30;75.10
24618;DHT22;12762;51.730;5.356;2023-02-15T03:06:09;2.30;75.30
24618;DHT22;12762;51.730;5.356;2023-02-15T03:08:42;2.30;75.30
24618;DHT22;12762;51.730;5.356;2023-02-15T03:11:11;2.30;75.30
24618;DHT22;12762;51.730;5.356;2023-02-15T03:13:40;2.20;75.20
24618;DHT22;12762;51.730;5.356;2023-02-15T03:16:09;2.20;75.30
24618;DHT22;12762;51.730;5.356;2023-02-15T03:21:48;2.20;75.40
24618;DHT22;12762;51.730;5.356;2023-02-15T03:24:33;2.20;75.40
24618;DHT22;12762;51.730;5.356;2023-02-15T03:27:05;2.20;75.50
24618;DHT22;12762;51.730;5.356;2023-02-15T03:29:33;2.30;75.60
24618;DHT22;12762;51.730;5.356;2023-02-15T03:32:05;2.30;75.60
24618;DHT22;12762;51.730;5.356;2023-02-15T03:34:33;2.30;75.60
24618;DHT22;12762;51.730;5.356;2023-02-15T03:39:37;2.40;75.80
24618;DHT22;12762;51.730;5.356;2023-02-15T03:42:17;2.40;75.80
24618;DHT22;12762;51.730;5.356;2023-02-15T03:47:39;2.50;75.80
24618;DHT22;12762;51.730;5.356;2023-02-15T03:50:12;2.60;75.90
24618;DHT22;12762;51.730;5.356;2023-02-15T03:53:02;2.60;75.90
24618;DHT22;12762;51.730;5.356;2023-02-15T03:55:31;2.60;75.80
24618;DHT22;12762;51.730;5.356;2023-02-15T03:58:00;2.60;76.00
24618;DHT22;12762;51.730;5.356;2023-02-15T04:00:57;2.70;76.00
24618;DHT22;12762;51.730;5.356;2023-02-15T04:03:51;2.70;76.00
24618;DHT22;12762;51.730;5.356;2023-02-15T04:06:21;2.70;76.00
24618;DHT22;12762;51.730;5.356;2023-02-15T04:08:48;2.70;76.00
24618;DHT22;12762;51.730;5.356;2023-02-15T04:11:34;2.70;76.00
24618;DHT22;12762;51.730;5.356;2023-02-15T04:14:00;2.80;76.10
24618;DHT22;12762;51.730;5.356;2023-02-15T04:16:47;2.70;76.20
24618;DHT22;12762;51.730;5.356;2023-02-15T04:19:14;2.80;76.30
24618;DHT22;12762;51.730;5.356;2023-02-15T04:21:59;2.80;76.30
24618;DHT22;12762;51.730;5.356;2023-02-15T04:24:45;2.80;76.40
24618;DHT22;12762;51.730;5.356;2023-02-15T04:27:31;2.80;77.30
24618;DHT22;12762;51.730;5.356;2023-02-15T04:29:57;2.80;76.50
24618;DHT22;12762;51.730;5.356;2023-02-15T04:32:24;2.80;76.50
24618;DHT22;12762;51.730;5.356;2023-02-15T04:34:51;2.80;76.50
24618;DHT22;12762;51.730;5.356;2023-02-15T04:37:18;2.80;76.60
24618;DHT22;12762;51.730;5.356;2023-02-15T04:39:44;2.80;76.60
24618;DHT22;12762;51.730;5.356;2023-02-15T04:42:11;2.80;76.70
24618;DHT22;12762;51.730;5.356;2023-02-15T04:44:44;2.80;77.70
24618;DHT22;12762;51.730;5.356;2023-02-15T04:47:11;2.70;76.80
24618;DHT22;12762;51.730;5.356;2023-02-15T04:49:40;2.70;76.80
24618;DHT22;12762;51.730;5.356;2023-02-15T04:52:06;2.80;77.00
24618;DHT22;12762;51.730;5.356;2023-02-15T04:54:36;2.70;76.90
24618;DHT22;12762;51.730;5.356;2023-02-15T04:57:03;2.70;77.10
24618;DHT22;12762;51.730;5.356;2023-02-15T04:59:29;2.70;77.10
24618;DHT22;12762;51.730;5.356;2023-02-15T05:01:56;2.70;77.20
24618;DHT22;12762;51.730;5.356;2023-02-15T05:04:23;2.70;77.30
24618;DHT22;12762;51.730;5.356;2023-02-15T05:06:50;2.70;77.30
24618;DHT22;12762;51.730;5.356;2023-02-15T05:09:17;2.70;77.30
24618;DHT22;12762;51.730;5.356;2023-02-15T05:11:44;2.70;77.40
24618;DHT22;12762;51.730;5.356;2023-02-15T05:14:10;2.70;77.50
24618;DHT22;12762;51.730;5.356;2023-02-15T05:16:40;2.70;77.50
24618;DHT22;12762;51.730;5.356;2023-02-15T05:19:07;2.70;77.60
24618;DHT22;12762;51.730;5.356;2023-02-15T05:21:34;2.70;77.50
24618;DHT22;12762;51.730;5.356;2023-02-15T05:24:01;2.70;77.60
24618;DHT22;12762;51.730;5.356;2023-02-15T05:26:48;2.60;77.50
24618;DHT22;12762;51.730;5.356;2023-02-15T05:29:33;2.70;77.70
24618;DHT22;12762;51.730;5.356;2023-02-15T05:32:00;2.60;77.70
24618;DHT22;12762;51.730;5.356;2023-02-15T05:34:27;2.60;77.60
24618;DHT22;12762;51.730;5.356;2023-02-15T05:36:54;2.70;77.70
24618;DHT22;12762;51.730;5.356;2023-02-15T05:39:21;2.70;77.80
24618;DHT22;12762;51.730;5.356;2023-02-15T05:41:47;2.60;77.70
24618;DHT22;12762;51.730;5.356;2023-02-15T05:44:14;2.60;77.70
24618;DHT22;12762;51.730;5.356;2023-02-15T05:46:41;2.70;77.90
24618;DHT22;12762;51.730;5.356;2023-02-15T05:49:08;2.60;77.80
24618;DHT22;12762;51.730;5.356;2023-02-15T05:51:35;2.60;77.90
24618;DHT22;12762;51.730;5.356;2023-02-15T05:54:02;2.60;77.90
24618;DHT22;12762;51.730;5.356;2023-02-15T05:56:28;2.60;77.90
24618;DHT22;12762;51.730;5.356;2023-02-15T05:58:55;2.60;78.00
24618;DHT22;12762;51.730;5.356;2023-02-15T06:01:22;2.60;78.00
24618;DHT22;12762;51.730;5.356;2023-02-15T06:03:49;2.60;78.10
24618;DHT22;12762;51.730;5.356;2023-02-15T06:06:16;2.60;78.10
24618;DHT22;12762;51.730;5.356;2023-02-15T06:08:43;2.60;78.10
24618;DHT22;12762;51.730;5.356;2023-02-15T06:11:10;2.60;78.10
24618;DHT22;12762;51.730;5.356;2023-02-15T06:13:37;2.60;78.20
24618;DHT22;12762;51.730;5.356;2023-02-15T06:16:05;2.60;78.20
24618;DHT22;12762;51.730;5.356;2023-02-15T06:18:33;2.60;78.20
24618;DHT22;12762;51.730;5.356;2023-02-15T06:21:00;2.60;78.20
24618;DHT22;12762;51.730;5.356;2023-02-15T06:23:27;2.60;78.20
24618;DHT22;12762;51.730;5.356;2023-02-15T06:25:54;2.60;78.20
24618;DHT22;12762;51.730;5.356;2023-02-15T06:28:20;2.60;78.30
24618;DHT22;12762;51.730;5.356;2023-02-15T06:30:47;2.50;78.20
24618;DHT22;12762;51.730;5.356;2023-02-15T06:33:14;2.50;78.20
24618;DHT22;12762;51.730;5.356;2023-02-15T06:35:41;2.50;78.20
24618;DHT22;12762;51.730;5.356;2023-02-15T06:38:08;2.50;78.20
24618;DHT22;12762;51.730;5.356;2023-02-15T06:40:34;2.50;78.30
24618;DHT22;12762;51.730;5.356;2023-02-15T06:43:01;2.50;78.40
24618;DHT22;12762;51.730;5.356;2023-02-15T06:45:31;2.40;78.40
24618;DHT22;12762;51.730;5.356;2023-02-15T06:47:58;2.40;78.50
24618;DHT22;12762;51.730;5.356;2023-02-15T06:50:24;2.40;78.50
24618;DHT22;12762;51.730;5.356;2023-02-15T06:52:58;2.40;78.50
24618;DHT22;12762;51.730;5.356;2023-02-15T06:55:25;2.40;78.60
24618;DHT22;12762;51.730;5.356;2023-02-15T06:57:54;2.40;78.50
24618;DHT22;12762;51.730;5.356;2023-02-15T07:00:23;2.30;78.40
24618;DHT22;12762;51.730;5.356;2023-02-15T07:02:57;2.40;78.60
24618;DHT22;12762;51.730;5.356;2023-02-15T07:05:26;2.30;78.60
24618;DHT22;12762;51.730;5.356;2023-02-15T07:07:58;2.30;78.60
24618;DHT22;12762;51.730;5.356;2023-02-15T07:10:26;2.30;78.50
24618;DHT22;12762;51.730;5.356;2023-02-15T07:12:53;2.30;78.60
24618;DHT22;12762;51.730;5.356;2023-02-15T07:15:22;2.40;78.60
24618;DHT22;12762;51.730;5.356;2023-02-15T07:17:49;2.30;78.70
24618;DHT22;12762;51.730;5.356;2023-02-15T07:20:21;2.40;78.70
24618;DHT22;12762;51.730;5.356;2023-02-15T07:22:49;2.40;78.70
24618;DHT22;12762;51.730;5.356;2023-02-15T07:25:16;2.40;78.70
24618;DHT22;12762;51.730;5.356;2023-02-15T07:27:44;2.40;78.70
24618;DHT22;12762;51.730;5.356;2023-02-15T07:30:15;2.40;78.70
24618;DHT22;12762;51.730;5.356;2023-02-15T07:32:43;2.40;78.80
24618;DHT22;12762;51.730;5.356;2023-02-15T07:35:32;2.50;78.80
24618;DHT22;12762;51.730;5.356;2023-02-15T07:38:07;2.50;78.80
24618;DHT22;12762;51.730;5.356;2023-02-15T07:40:36;2.50;78.80
24618;DHT22;12762;51.730;5.356;2023-02-15T07:43:03;2.50;78.80
24618;DHT22;12762;51.730;5.356;2023-02-15T07:45:30;2.60;78.90
24618;DHT22;12762;51.730;5.356;2023-02-15T07:47:57;2.60;79.00
24618;DHT22;12762;51.730;5.356;2023-02-15T07:50:26;2.60;78.90
24618;DHT22;12762;51.730;5.356;2023-02-15T07:52:53;2.60;79.00
24618;DHT22;12762;51.730;5.356;2023-02-15T07:55:23;2.70;79.00
24618;DHT22;12762;51.730;5.356;2023-02-15T07:57:51;2.70;79.00
24618;DHT22;12762;51.730;5.356;2023-02-15T08:00:22;2.70;79.00
24618;DHT22;12762;51.730;5.356;2023-02-15T08:02:55;2.80;79.00
24618;DHT22;12762;51.730;5.356;2023-02-15T08:05:42;2.80;79.20
24618;DHT22;12762;51.730;5.356;2023-02-15T08:08:10;2.90;79.00
24618;DHT22;12762;51.730;5.356;2023-02-15T08:13:47;3.00;79.10
24618;DHT22;12762;51.730;5.356;2023-02-15T08:16:40;3.00;79.00
24618;DHT22;12762;51.730;5.356;2023-02-15T08:19:19;3.10;79.00
24618;DHT22;12762;51.730;5.356;2023-02-15T08:21:48;3.20;79.20
24618;DHT22;12762;51.730;5.356;2023-02-15T08:24:21;3.30;79.10
24618;DHT22;12762;51.730;5.356;2023-02-15T08:26:50;3.30;79.20
24618;DHT22;12762;51.730;5.356;2023-02-15T08:29:19;3.40;79.80
24618;DHT22;12762;51.730;5.356;2023-02-15T08:31:53;3.50;79.10
24618;DHT22;12762;51.730;5.356;2023-02-15T08:34:20;3.60;79.10
24618;DHT22;12762;51.730;5.356;2023-02-15T08:36:47;3.80;79.30
24618;DHT22;12762;51.730;5.356;2023-02-15T08:39:17;4.60;80.60
24618;DHT22;12762;51.730;5.356;2023-02-15T08:41:45;5.70;81.00
24618;DHT22;12762;51.730;5.356;2023-02-15T08:44:14;6.70;80.10
24618;DHT22;12762;51.730;5.356;2023-02-15T08:46:42;7.60;78.90
24618;DHT22;12762;51.730;5.356;2023-02-15T08:49:12;8.20;77.80
24618;DHT22;12762;51.730;5.356;2023-02-15T08:51:42;8.70;76.40
24618;DHT22;12762;51.730;5.356;2023-02-15T08:54:13;8.90;75.30
24618;DHT22;12762;51.730;5.356;2023-02-15T08:56:44;8.90;74.40
24618;DHT22;12762;51.730;5.356;2023-02-15T08:59:14;8.80;73.70
24618;DHT22;12762;51.730;5.356;2023-02-15T09:01:42;8.50;73.20
24618;DHT22;12762;51.730;5.356;2023-02-15T09:04:09;8.30;73.50
24618;DHT22;12762;51.730;5.356;2023-02-15T09:06:38;8.00;73.50
24618;DHT22;12762;51.730;5.356;2023-02-15T09:09:06;7.90;73.80
24618;DHT22;12762;51.730;5.356;2023-02-15T09:11:35;7.70;73.90
24618;DHT22;12762;51.730;5.356;2023-02-15T09:14:07;7.60;74.30
24618;DHT22;12762;51.730;5.356;2023-02-15T09:16:37;7.50;74.60
24618;DHT22;12762;51.730;5.356;2023-02-15T09:19:05;7.40;74.70
24618;DHT22;12762;51.730;5.356;2023-02-15T09:21:36;7.30;74.80
24618;DHT22;12762;51.730;5.356;2023-02-15T09:24:06;7.30;75.20
24618;DHT22;12762;51.730;5.356;2023-02-15T09:26:35;7.30;75.30
24618;DHT22;12762;51.730;5.356;2023-02-15T09:29:03;7.30;75.50
24618;DHT22;12762;51.730;5.356;2023-02-15T09:31:39;7.30;75.70
24618;DHT22;12762;51.730;5.356;2023-02-15T09:34:09;7.40;76.00
24618;DHT22;12762;51.730;5.356;2023-02-15T09:36:38;7.50;76.20
24618;DHT22;12762;51.730;5.356;2023-02-15T09:39:21;7.60;76.30
24618;DHT22;12762;51.730;5.356;2023-02-15T10:04:20;8.60;76.50
24618;DHT22;12762;51.730;5.356;2023-02-15T10:28:48;9.50;75.90
24618;DHT22;12762;51.730;5.356;2023-02-15T10:34:16;9.90;75.50
24618;DHT22;12762;51.730;5.356;2023-02-15T10:39:36;10.10;74.20
24618;DHT22;12762;51.730;5.356;2023-02-15T10:42:20;10.20;74.10
24618;DHT22;12762;51.730;5.356;2023-02-15T10:45:29;10.40;74.00
24618;DHT22;12762;51.730;5.356;2023-02-15T10:50:53;10.70;73.70
24618;DHT22;12762;51.730;5.356;2023-02-15T11:07:39;11.40;72.90
24618;DHT22;12762;51.730;5.356;2023-02-15T11:12:44;11.70;72.60
24618;DHT22;12762;51.730;5.356;2023-02-15T11:15:24;11.90;72.50
24618;DHT22;12762;51.730;5.356;2023-02-15T11:17:58;12.00;72.00
24618;DHT22;12762;51.730;5.356;2023-02-15T11:20:45;12.10;71.70
24618;DHT22;12762;51.730;5.356;2023-02-15T11:23:16;12.20;71.30
24618;DHT22;12762;51.730;5.356;2023-02-15T11:25:52;12.30;70.90
24618;DHT22;12762;51.730;5.356;2023-02-15T11:28:27;12.50;70.90
24618;DHT22;12762;51.730;5.356;2023-02-15T11:30:57;12.50;70.60
24618;DHT22;12762;51.730;5.356;2023-02-15T11:33:31;12.60;70.60
24618;DHT22;12762;51.730;5.356;2023-02-15T11:36:13;12.70;70.20
24618;DHT22;12762;51.730;5.356;2023-02-15T11:38:41;12.80;70.10
24618;DHT22;12762;51.730;5.356;2023-02-15T11:41:13;12.90;69.90
24618;DHT22;12762;51.730;5.356;2023-02-15T11:46:49;13.10;70.20
24618;DHT22;12762;51.730;5.356;2023-02-15T11:51:53;13.40;69.30
24618;DHT22;12762;51.730;5.356;2023-02-15T11:54:27;13.50;69.10
24618;DHT22;12762;51.730;5.356;2023-02-15T11:56:58;13.60;68.90
24618;DHT22;12762;51.730;5.356;2023-02-15T11:59:35;13.70;68.70
24618;DHT22;12762;51.730;5.356;2023-02-15T12:02:15;13.80;68.30
24618;DHT22;12762;51.730;5.356;2023-02-15T12:05:03;13.90;68.10
24618;DHT22;12762;51.730;5.356;2023-02-15T12:07:37;14.00;67.80
24618;DHT22;12762;51.730;5.356;2023-02-15T12:10:30;14.00;67.50
24618;DHT22;12762;51.730;5.356;2023-02-15T12:15:38;14.00;67.50
24618;DHT22;12762;51.730;5.356;2023-02-15T12:20:49;14.20;67.20
24618;DHT22;12762;51.730;5.356;2023-02-15T12:23:17;14.30;66.90
24618;DHT22;12762;51.730;5.356;2023-02-15T12:25:53;14.40;66.40
24618;DHT22;12762;51.730;5.356;2023-02-15T12:31:01;14.50;65.80
24618;DHT22;12762;51.730;5.356;2023-02-15T12:33:34;14.60;66.10
24618;DHT22;12762;51.730;5.356;2023-02-15T12:36:47;14.70;65.90
24618;DHT22;12762;51.730;5.356;2023-02-15T12:39:16;14.70;65.80
24618;DHT22;12762;51.730;5.356;2023-02-15T12:41:46;14.70;65.60
24618;DHT22;12762;51.730;5.356;2023-02-15T12:44:18;14.70;65.50
24618;DHT22;12762;51.730;5.356;2023-02-15T12:49:42;14.60;65.30
24618;DHT22;12762;51.730;5.356;2023-02-15T12:54:47;14.50;65.00
24618;DHT22;12762;51.730;5.356;2023-02-15T12:57:24;14.50;65.10
24618;DHT22;12762;51.730;5.356;2023-02-15T13:00:01;14.50;65.30
24618;DHT22;12762;51.730;5.356;2023-02-15T13:02:42;14.60;65.10
24618;DHT22;12762;51.730;5.356;2023-02-15T13:07:45;14.70;64.60
24618;DHT22;12762;51.730;5.356;2023-02-15T13:10:33;14.70;64.50
24618;DHT22;12762;51.730;5.356;2023-02-15T13:13:01;14.70;64.80
24618;DHT22;12762;51.730;5.356;2023-02-15T13:15:37;14.70;64.70
24618;DHT22;12762;51.730;5.356;2023-02-15T13:18:12;14.80;64.70
24618;DHT22;12762;51.730;5.356;2023-02-15T13:20:43;14.90;64.60
24618;DHT22;12762;51.730;5.356;2023-02-15T13:23:28;15.00;64.80
24618;DHT22;12762;51.730;5.356;2023-02-15T13:26:02;15.20;64.40
24618;DHT22;12762;51.730;5.356;2023-02-15T13:28:45;15.20;63.80
24618;DHT22;12762;51.730;5.356;2023-02-15T13:31:23;15.30;63.70
24618;DHT22;12762;51.730;5.356;2023-02-15T13:34:00;15.30;63.40
24618;DHT22;12762;51.730;5.356;2023-02-15T13:36:47;15.30;63.00
24618;DHT22;12762;51.730;5.356;2023-02-15T13:39:26;15.30;63.00
24618;DHT22;12762;51.730;5.356;2023-02-15T13:42:18;15.20;62.60
24618;DHT22;12762;51.730;5.356;2023-02-15T13:47:45;15.10;62.70
24618;DHT22;12762;51.730;5.356;2023-02-15T13:55:44;15.10;62.80
24618;DHT22;12762;51.730;5.356;2023-02-15T14:17:10;15.50;61.70
24618;DHT22;12762;51.730;5.356;2023-02-15T14:19:50;15.60;61.70
24618;DHT22;12762;51.730;5.356;2023-02-15T14:22:36;15.70;61.80
24618;DHT22;12762;51.730;5.356;2023-02-15T14:31:02;15.70;61.40
24618;DHT22;12762;51.730;5.356;2023-02-15T14:33:39;15.60;61.20
24618;DHT22;12762;51.730;5.356;2023-02-15T14:36:10;15.60;60.90
24618;DHT22;12762;51.730;5.356;2023-02-15T14:41:42;15.40;60.80
24618;DHT22;12762;51.730;5.356;2023-02-15T14:47:11;15.30;61.00
24618;DHT22;12762;51.730;5.356;2023-02-15T14:49:42;15.20;60.90
24618;DHT22;12762;51.730;5.356;2023-02-15T14:52:10;15.20;61.00
24618;DHT22;12762;51.730;5.356;2023-02-15T14:59:50;15.10;60.80
24618;DHT22;12762;51.730;5.356;2023-02-15T15:02:25;15.00;60.80
24618;DHT22;12762;51.730;5.356;2023-02-15T15:05:08;14.90;60.90
24618;DHT22;12762;51.730;5.356;2023-02-15T15:07:45;14.90;61.10
24618;DHT22;12762;51.730;5.356;2023-02-15T15:12:44;14.70;61.10
24618;DHT22;12762;51.730;5.356;2023-02-15T15:15:15;14.70;61.00
24618;DHT22;12762;51.730;5.356;2023-02-15T15:18:06;14.50;60.90
24618;DHT22;12762;51.730;5.356;2023-02-15T15:20:48;14.40;61.00
24618;DHT22;12762;51.730;5.356;2023-02-15T15:25:57;14.30;61.40
24618;DHT22;12762;51.730;5.356;2023-02-15T15:31:17;14.10;61.20
24618;DHT22;12762;51.730;5.356;2023-02-15T15:50:15;13.50;62.00
24618;DHT22;12762;51.730;5.356;2023-02-15T15:52:49;13.50;62.10
24618;DHT22;12762;51.730;5.356;2023-02-15T15:55:19;13.40;62.10
24618;DHT22;12762;51.730;5.356;2023-02-15T15:57:55;13.40;62.20
24618;DHT22;12762;51.730;5.356;2023-02-15T16:00:36;13.30;62.10
24618;DHT22;12762;51.730;5.356;2023-02-15T16:03:05;13.30;62.30
24618;DHT22;12762;51.730;5.356;2023-02-15T16:05:39;13.20;62.30
24618;DHT22;12762;51.730;5.356;2023-02-15T16:08:06;13.20;62.40
24618;DHT22;12762;51.730;5.356;2023-02-15T16:10:33;13.10;62.40
24618;DHT22;12762;51.730;5.356;2023-02-15T16:13:02;13.10;62.50
24618;DHT22;12762;51.730;5.356;2023-02-15T16:15:46;13.00;62.50
24618;DHT22;12762;51.730;5.356;2023-02-15T16:18:17;13.00;62.60
24618;DHT22;12762;51.730;5.356;2023-02-15T16:21:01;12.90;62.60
24618;DHT22;12762;51.730;5.356;2023-02-15T16:28:39;12.80;62.70
24618;DHT22;12762;51.730;5.356;2023-02-15T16:31:14;12.70;62.70
24618;DHT22;12762;51.730;5.356;2023-02-15T16:33:44;12.70;62.70
24618;DHT22;12762;51.730;5.356;2023-02-15T16:36:26;12.60;62.70
24618;DHT22;12762;51.730;5.356;2023-02-15T16:41:26;12.60;62.90
24618;DHT22;12762;51.730;5.356;2023-02-15T16:43:55;12.50;62.90
24618;DHT22;12762;51.730;5.356;2023-02-15T16:46:33;12.50;63.00
24618;DHT22;12762;51.730;5.356;2023-02-15T16:49:22;12.40;63.00
24618;DHT22;12762;51.730;5.356;2023-02-15T16:52:02;12.30;63.00
24618;DHT22;12762;51.730;5.356;2023-02-15T16:54:30;12.20;63.00
24618;DHT22;12762;51.730;5.356;2023-02-15T16:56:58;12.20;63.10
24618;DHT22;12762;51.730;5.356;2023-02-15T17:01:58;12.00;63.20
24618;DHT22;12762;51.730;5.356;2023-02-15T17:04:30;12.00;63.30
24618;DHT22;12762;51.730;5.356;2023-02-15T17:09:31;11.80;63.30
24618;DHT22;12762;51.730;5.356;2023-02-15T17:12:01;11.80;63.40
24618;DHT22;12762;51.730;5.356;2023-02-15T17:14:30;11.70;63.50
24618;DHT22;12762;51.730;5.356;2023-02-15T17:17:05;11.70;63.50
24618;DHT22;12762;51.730;5.356;2023-02-15T17:22:18;11.50;63.50
24618;DHT22;12762;51.730;5.356;2023-02-15T17:24:47;11.40;63.60
24618;DHT22;12762;51.730;5.356;2023-02-15T17:27:20;11.40;63.70
24618;DHT22;12762;51.730;5.356;2023-02-15T17:29:51;11.30;63.80
24618;DHT22;12762;51.730;5.356;2023-02-15T17:32:21;11.20;63.80
24618;DHT22;12762;51.730;5.356;2023-02-15T17:35:05;11.20;64.00
24618;DHT22;12762;51.730;5.356;2023-02-15T17:40:24;11.00;64.10
24618;DHT22;12762;51.730;5.356;2023-02-15T17:42:51;11.00;64.20
24618;DHT22;12762;51.730;5.356;2023-02-15T17:45:19;10.90;64.30
24618;DHT22;12762;51.730;5.356;2023-02-15T17:47:48;10.90;64.40
24618;DHT22;12762;51.730;5.356;2023-02-15T17:50:22;10.80;64.40
24618;DHT22;12762;51.730;5.356;2023-02-15T17:52:50;10.80;64.50
24618;DHT22;12762;51.730;5.356;2023-02-15T17:55:19;10.70;64.60
24618;DHT22;12762;51.730;5.356;2023-02-15T17:58:10;10.70;64.60
24618;DHT22;12762;51.730;5.356;2023-02-15T18:00:42;10.60;64.70
24618;DHT22;12762;51.730;5.356;2023-02-15T18:03:42;10.60;64.80
24618;DHT22;12762;51.730;5.356;2023-02-15T18:06:28;10.50;64.90
24618;DHT22;12762;51.730;5.356;2023-02-15T18:09:16;10.40;64.90
24618;DHT22;12762;51.730;5.356;2023-02-15T18:12:02;10.40;65.00
24618;DHT22;12762;51.730;5.356;2023-02-15T18:14:37;10.30;65.00
24618;DHT22;12762;51.730;5.356;2023-02-15T18:17:05;10.20;65.00
24618;DHT22;12762;51.730;5.356;2023-02-15T18:19:36;10.20;65.20
24618;DHT22;12762;51.730;5.356;2023-02-15T18:22:13;10.20;65.30
24618;DHT22;12762;51.730;5.356;2023-02-15T18:24:41;10.10;65.40
24618;DHT22;12762;51.730;5.356;2023-02-15T18:27:11;10.10;65.50
24618;DHT22;12762;51.730;5.356;2023-02-15T18:29:39;10.00;65.50
24618;DHT22;12762;51.730;5.356;2023-02-15T18:32:09;10.00;65.50
24618;DHT22;12762;51.730;5.356;2023-02-15T18:34:40;10.00;65.60
24618;DHT22;12762;51.730;5.356;2023-02-15T18:37:15;9.90;66.70
24618;DHT22;12762;51.730;5.356;2023-02-15T18:39:45;9.90;66.90
24618;DHT22;12762;51.730;5.356;2023-02-15T18:42:31;9.80;66.90
24618;DHT22;12762;51.730;5.356;2023-02-15T18:45:06;9.80;67.00
24618;DHT22;12762;51.730;5.356;2023-02-15T18:47:33;9.70;67.00
24618;DHT22;12762;51.730;5.356;2023-02-15T18:50:01;9.70;67.10
24618;DHT22;12762;51.730;5.356;2023-02-15T18:52:35;9.70;67.20
24618;DHT22;12762;51.730;5.356;2023-02-15T18:57:47;9.60;67.30
24618;DHT22;12762;51.730;5.356;2023-02-15T19:02:42;9.50;67.30
24618;DHT22;12762;51.730;5.356;2023-02-15T19:05:13;9.50;67.40
24618;DHT22;12762;51.730;5.356;2023-02-15T19:07:41;9.50;67.40
24618;DHT22;12762;51.730;5.356;2023-02-15T19:10:15;9.50;67.40
24618;DHT22;12762;51.730;5.356;2023-02-15T19:12:44;9.50;67.50
24618;DHT22;12762;51.730;5.356;2023-02-15T19:15:18;9.50;67.60
24618;DHT22;12762;51.730;5.356;2023-02-15T19:17:48;9.40;67.60
24618;DHT22;12762;51.730;5.356;2023-02-15T19:20:21;9.40;67.60
24618;DHT22;12762;51.730;5.356;2023-02-15T19:22:50;9.40;67.70
24618;DHT22;12762;51.730;5.356;2023-02-15T19:25:27;9.40;67.80
24618;DHT22;12762;51.730;5.356;2023-02-15T19:27:55;9.30;67.70
24618;DHT22;12762;51.730;5.356;2023-02-15T19:30:27;9.30;67.80
24618;DHT22;12762;51.730;5.356;2023-02-15T19:32:56;9.30;67.90
24618;DHT22;12762;51.730;5.356;2023-02-15T19:35:25;9.30;68.00
24618;DHT22;12762;51.730;5.356;2023-02-15T19:37:59;9.20;67.90
24618;DHT22;12762;51.730;5.356;2023-02-15T19:40:29;9.20;68.80
24618;DHT22;12762;51.730;5.356;2023-02-15T19:42:57;9.20;68.00